createdAt,value
2019-06-10T00:03:11.242Z,14.60
2019-06-10T00:06:32.425Z,14.50
2019-06-10T00:13:25.000Z,14.40
2019-06-10T00:16:13.201Z,14.20
2019-06-10T00:19:03.904Z,14.20
2019-06-10T00:21:51.510Z,14.30
2019-06-10T00:24:40.907Z,14.30
2019-06-10T00:27:31.193Z,14.20
2019-06-10T00:30:20.868Z,14.10
2019-06-10T00:33:11.603Z,14.10
2019-06-10T00:35:58.783Z,14.00
2019-06-10T00:38:51.546Z,13.90
2019-06-10T00:41:44.821Z,13.80
2019-06-10T00:48:25.056Z,13.80
2019-06-10T00:51:06.074Z,14.00
2019-06-10T00:54:05.328Z,13.90
2019-06-10T00:57:43.076Z,13.90
2019-06-10T01:00:26.810Z,13.90
2019-06-10T01:03:20.906Z,13.70
2019-06-10T01:06:08.970Z,13.60
2019-06-10T01:08:56.960Z,13.70
2019-06-10T01:11:52.105Z,13.70
2019-06-10T01:14:55.298Z,13.70
2019-06-10T01:17:41.741Z,13.80
2019-06-10T01:20:29.394Z,13.90
2019-06-10T01:23:17.631Z,13.80
2019-06-10T01:26:07.515Z,13.70
2019-06-10T01:29:05.650Z,13.90
2019-06-10T01:31:54.361Z,13.80
2019-06-10T01:35:17.483Z,13.80
2019-06-10T01:38:13.497Z,13.70
2019-06-10T01:41:01.500Z,13.60
2019-06-10T01:44:14.280Z,13.40
2019-06-10T01:47:01.676Z,13.40
2019-06-10T01:49:51.539Z,13.40
2019-06-10T01:52:57.931Z,13.50
2019-06-10T01:55:45.751Z,13.50
2019-06-10T01:58:34.090Z,13.50
2019-06-10T02:01:34.490Z,13.40
2019-06-10T02:07:23.122Z,13.50
2019-06-10T02:10:13.777Z,13.50
2019-06-10T02:13:01.356Z,13.60
2019-06-10T02:15:54.610Z,13.60
2019-06-10T02:18:56.806Z,13.60
2019-06-10T02:27:31.505Z,13.60
2019-06-10T02:30:40.273Z,13.60
2019-06-10T02:33:12.813Z,13.70
2019-06-10T02:36:03.433Z,13.70
2019-06-10T02:38:49.402Z,13.60
2019-06-10T02:41:47.248Z,13.70
2019-06-10T02:44:37.578Z,13.60
2019-06-10T02:47:32.156Z,13.70
2019-06-10T02:50:18.853Z,13.70
2019-06-10T02:53:04.299Z,13.90
2019-06-10T02:55:53.816Z,13.90
2019-06-10T02:58:44.780Z,13.80
2019-06-10T03:01:37.907Z,13.70
2019-06-10T03:04:32.511Z,13.80
2019-06-10T03:07:17.894Z,13.70
2019-06-10T03:10:06.477Z,13.70
2019-06-10T03:12:54.322Z,13.60
2019-06-10T03:15:48.727Z,13.60
2019-06-10T03:18:36.797Z,13.60
2019-06-10T03:21:25.967Z,13.40
2019-06-10T03:24:36.048Z,13.50
2019-06-10T03:27:16.312Z,13.60
2019-06-10T03:30:14.759Z,13.60
2019-06-10T03:32:55.600Z,13.60
2019-06-10T03:35:46.711Z,13.60
2019-06-10T03:38:36.965Z,13.70
2019-06-10T03:41:57.967Z,13.70
2019-06-10T03:44:19.031Z,13.50
2019-06-10T03:47:12.888Z,13.40
2019-06-10T03:50:03.235Z,13.30
2019-06-10T03:52:55.459Z,13.30
2019-06-10T03:55:43.209Z,13.30
2019-06-10T03:58:32.699Z,13.30
2019-06-10T04:01:24.356Z,13.30
2019-06-10T04:04:14.841Z,13.30
2019-06-10T04:07:42.509Z,13.30
2019-06-10T04:15:19.864Z,13.30
2019-06-10T04:18:26.584Z,13.40
2019-06-10T04:22:23.761Z,13.40
2019-06-10T04:25:33.182Z,13.50
2019-06-10T04:28:59.597Z,13.50
2019-06-10T04:40:09.295Z,13.60
2019-06-10T04:54:58.942Z,13.60
2019-06-10T05:20:12.387Z,13.90
2019-06-10T05:23:19.569Z,14.20
2019-06-10T05:26:53.832Z,14.10
2019-06-10T05:33:44.681Z,14.20
2019-06-10T05:44:27.001Z,14.40
2019-06-10T05:48:04.017Z,14.40
2019-06-10T05:59:13.081Z,14.60
2019-06-10T06:03:09.288Z,14.60
2019-06-10T06:06:54.102Z,14.60
2019-06-10T06:24:23.839Z,15.10
2019-06-10T06:27:13.108Z,15.30
2019-06-10T06:30:06.971Z,15.30
2019-06-10T06:32:53.083Z,15.30
2019-06-10T06:35:52.383Z,15.40
2019-06-10T06:38:38.643Z,15.40
2019-06-10T06:41:34.575Z,15.60
2019-06-10T06:44:23.659Z,15.90
2019-06-10T06:47:18.975Z,16.00
2019-06-10T06:50:04.939Z,16.10
2019-06-10T06:53:25.821Z,16.20
2019-06-10T06:56:28.883Z,16.30
2019-06-10T06:59:17.717Z,16.30
2019-06-10T07:02:12.353Z,16.50
2019-06-10T07:05:00.229Z,16.30
2019-06-10T07:07:48.547Z,16.10
2019-06-10T07:10:37.387Z,16.10
2019-06-10T07:13:27.578Z,16.20
2019-06-10T07:16:39.677Z,16.30
2019-06-10T07:22:46.570Z,16.20
2019-06-10T07:29:56.115Z,16.60
2019-06-10T07:34:09.227Z,16.70
2019-06-10T07:37:58.736Z,16.70
2019-06-10T07:45:02.416Z,16.80
2019-06-10T07:56:24.137Z,16.80
2019-06-10T07:59:39.538Z,17.10
2019-06-10T08:03:02.456Z,16.90
2019-06-10T08:05:58.535Z,17.00
2019-06-10T08:09:39.087Z,16.90
2019-06-10T08:12:44.189Z,17.10
2019-06-10T08:15:32.515Z,16.90
2019-06-10T08:18:22.537Z,17.10
2019-06-10T08:21:12.245Z,17.00
2019-06-10T08:24:03.279Z,17.20
2019-06-10T08:26:58.759Z,17.10
2019-06-10T08:29:49.526Z,17.20
2019-06-10T08:32:53.293Z,17.50
2019-06-10T08:35:48.545Z,17.60
2019-06-10T08:39:12.039Z,17.80
2019-06-10T08:42:53.802Z,18.00
2019-06-10T08:50:24.796Z,18.00
2019-06-10T08:54:13.220Z,18.50
2019-06-10T08:57:33.531Z,18.50
2019-06-10T09:01:22.333Z,18.70
2019-06-10T09:13:02.831Z,19.10
2019-06-10T09:16:43.825Z,19.40
2019-06-10T09:19:44.224Z,19.80
2019-06-10T09:26:44.347Z,19.80
2019-06-10T09:29:55.263Z,20.40
2019-06-10T09:33:04.258Z,20.60
2019-06-10T09:36:40.906Z,20.60
2019-06-10T09:39:32.929Z,20.30
2019-06-10T09:43:26.135Z,20.30
2019-06-10T09:46:24.707Z,21.00
2019-06-10T09:49:32.795Z,21.60
2019-06-10T09:52:34.286Z,22.00
2019-06-10T09:58:55.510Z,22.60
2019-06-10T10:05:59.362Z,23.10
2019-06-10T10:08:49.296Z,23.50
2019-06-10T10:11:51.342Z,23.90
2019-06-10T10:14:39.980Z,23.80
2019-06-10T10:17:44.472Z,24.30
2019-06-10T10:20:30.395Z,24.80
2019-06-10T10:27:40.167Z,24.70
2019-06-10T10:34:08.223Z,24.90
2019-06-10T10:36:57.325Z,23.80
2019-06-10T10:39:49.112Z,23.10
2019-06-10T10:48:36.600Z,24.40
2019-06-10T10:51:24.939Z,23.40
2019-06-10T10:54:28.698Z,23.30
2019-06-10T10:57:07.621Z,23.30
2019-06-10T11:00:12.494Z,24.30
2019-06-10T11:03:08.997Z,24.70
2019-06-10T11:06:04.233Z,24.50
2019-06-10T11:09:22.435Z,24.30
2019-06-10T11:15:39.852Z,24.50
2019-06-10T11:18:54.099Z,23.70
2019-06-10T11:21:50.114Z,23.60
2019-06-10T11:24:56.487Z,23.60
2019-06-10T11:27:57.683Z,22.90
2019-06-10T11:31:25.476Z,22.90
2019-06-10T11:33:44.987Z,23.00
2019-06-10T11:36:43.214Z,23.20
2019-06-10T11:40:08.250Z,23.30
2019-06-10T11:42:54.193Z,23.40
2019-06-10T11:46:07.622Z,23.00
2019-06-10T11:49:56.515Z,23.10
2019-06-10T11:57:35.340Z,22.90
2019-06-10T12:00:55.848Z,22.70
2019-06-10T12:03:43.251Z,22.30
2019-06-10T12:06:59.004Z,22.00
2019-06-10T12:10:28.075Z,22.00
2019-06-10T12:17:34.835Z,21.50
2019-06-10T12:20:57.552Z,21.10
2019-06-10T12:27:55.834Z,20.60
2019-06-10T12:35:08.196Z,19.60
2019-06-10T12:38:38.088Z,19.50
2019-06-10T12:41:33.228Z,19.60
2019-06-10T12:44:55.838Z,19.40
2019-06-10T12:48:14.173Z,19.20
2019-06-10T12:54:53.354Z,19.10
2019-06-10T13:02:19.010Z,19.10
2019-06-10T13:04:59.649Z,19.20
2019-06-10T13:07:48.699Z,19.20
2019-06-10T13:10:38.899Z,19.20
2019-06-10T13:13:26.844Z,19.30
2019-06-10T13:19:12.580Z,19.30
2019-06-10T13:22:01.285Z,19.30
2019-06-10T13:24:49.796Z,19.50
2019-06-10T13:27:42.911Z,19.60
2019-06-10T13:30:34.172Z,19.60
2019-06-10T13:33:35.610Z,19.50
2019-06-10T13:36:14.922Z,19.40
2019-06-10T13:39:05.426Z,19.50
2019-06-10T13:42:06.314Z,19.50
2019-06-10T13:44:53.440Z,19.30
2019-06-10T13:47:42.973Z,18.90
2019-06-10T13:50:32.883Z,18.60
2019-06-10T13:53:53.643Z,18.50
2019-06-10T13:56:34.800Z,18.60
2019-06-10T13:59:04.060Z,18.60
2019-06-10T14:01:53.190Z,18.50
2019-06-10T14:04:42.506Z,18.40
2019-06-10T14:07:43.338Z,18.20
2019-06-10T14:11:36.785Z,18.20
2019-06-10T14:15:09.804Z,18.20
2019-06-10T14:18:47.482Z,18.30
2019-06-10T14:33:14.241Z,18.10
2019-06-10T14:36:28.479Z,18.10
2019-06-10T14:39:55.296Z,18.00
2019-06-10T14:43:18.474Z,17.90
2019-06-10T14:49:32.842Z,17.70
2019-06-10T14:52:22.567Z,17.90
2019-06-10T14:55:11.878Z,18.10
2019-06-10T14:58:23.144Z,18.40
2019-06-10T15:01:24.119Z,18.40
2019-06-10T15:04:05.899Z,18.40
2019-06-10T15:06:54.003Z,18.50
2019-06-10T15:09:43.156Z,18.50
2019-06-10T15:12:34.044Z,18.40
2019-06-10T15:15:23.800Z,18.40
2019-06-10T15:18:14.875Z,18.50
2019-06-10T15:21:02.726Z,18.40
2019-06-10T15:23:52.329Z,18.50
2019-06-10T15:26:42.199Z,18.50
2019-06-10T15:29:32.843Z,18.50
2019-06-10T15:32:33.632Z,18.60
2019-06-10T15:35:13.705Z,18.70
2019-06-10T15:38:04.181Z,18.60
2019-06-10T15:40:53.381Z,18.60
2019-06-10T15:43:55.761Z,18.70
2019-06-10T15:46:44.090Z,18.60
2019-06-10T15:49:38.355Z,18.60
2019-06-10T15:52:24.978Z,18.50
2019-06-10T15:55:40.709Z,18.40
2019-06-10T15:58:04.764Z,18.30
2019-06-10T16:00:53.530Z,18.20
2019-06-10T16:03:46.177Z,18.20
2019-06-10T16:06:33.032Z,18.30
2019-06-10T16:09:22.516Z,18.30
2019-06-10T16:12:13.285Z,18.40
2019-06-10T16:15:02.500Z,18.30
2019-06-10T16:17:50.060Z,18.20
2019-06-10T16:20:37.784Z,18.00
2019-06-10T16:23:26.889Z,17.70
2019-06-10T16:26:16.244Z,17.60
2019-06-10T16:29:04.533Z,17.60
2019-06-10T16:31:53.020Z,17.60
2019-06-10T16:34:41.045Z,17.80
2019-06-10T16:38:19.095Z,18.10
2019-06-10T16:41:07.079Z,18.10
2019-06-10T16:43:55.827Z,18.20
2019-06-10T16:46:44.180Z,18.20
2019-06-10T16:49:32.798Z,18.30
2019-06-10T16:52:24.038Z,18.30
2019-06-10T16:55:12.599Z,18.20
2019-06-10T16:59:02.830Z,18.10
2019-06-10T17:02:25.026Z,17.90
2019-06-10T17:09:26.473Z,17.90
2019-06-10T17:12:15.550Z,18.00
2019-06-10T17:15:03.684Z,17.80
2019-06-10T17:18:20.429Z,17.80
2019-06-10T17:21:08.961Z,17.70
2019-06-10T17:23:57.066Z,17.70
2019-06-10T17:26:45.265Z,17.70
2019-06-10T17:29:44.897Z,17.60
2019-06-10T17:32:39.542Z,17.70
2019-06-10T17:35:44.727Z,17.60
2019-06-10T17:38:32.726Z,17.60
2019-06-10T17:41:23.216Z,17.60
2019-06-10T17:44:10.170Z,17.60
2019-06-10T17:46:58.096Z,17.50
2019-06-10T17:49:46.112Z,17.50
2019-06-10T17:52:36.585Z,17.60
2019-06-10T17:55:35.716Z,17.60
2019-06-10T17:58:38.784Z,17.50
2019-06-10T18:12:25.742Z,17.50
2019-06-10T18:25:54.999Z,17.40
2019-06-10T18:29:00.245Z,17.20
2019-06-10T18:34:45.227Z,17.20
2019-06-10T18:38:37.421Z,17.10
2019-06-10T18:42:08.764Z,17.10
2019-06-10T18:45:22.806Z,17.10
2019-06-10T18:47:53.204Z,17.00
2019-06-10T18:55:19.185Z,17.00
2019-06-10T18:59:13.511Z,16.90
2019-06-10T19:09:55.716Z,16.80
2019-06-10T19:13:48.701Z,16.70
2019-06-10T19:17:07.978Z,16.70
2019-06-10T19:20:23.435Z,16.70
2019-06-10T19:26:24.774Z,16.70
2019-06-10T19:33:38.718Z,16.70
2019-06-10T19:39:54.104Z,16.60
2019-06-10T19:42:44.432Z,16.70
2019-06-10T19:45:32.351Z,16.70
2019-06-10T19:48:43.325Z,16.60
2019-06-10T19:51:34.243Z,16.60
2019-06-10T19:54:22.348Z,16.60
2019-06-10T19:57:12.729Z,16.60
2019-06-10T20:00:10.593Z,16.70
2019-06-10T20:03:10.540Z,16.80
2019-06-10T20:05:59.037Z,16.70
2019-06-10T20:09:02.584Z,16.60
2019-06-10T20:12:08.124Z,16.70
2019-06-10T20:15:09.499Z,16.70
2019-06-10T20:18:03.193Z,16.60
2019-06-10T20:20:53.988Z,16.70
2019-06-10T20:23:48.244Z,16.70
2019-06-10T20:26:36.652Z,16.60
2019-06-10T20:29:25.933Z,16.60
2019-06-10T20:32:41.518Z,16.60
2019-06-10T20:37:57.966Z,16.60
2019-06-10T20:48:24.824Z,16.50
2019-06-10T20:52:12.263Z,16.50
2019-06-10T20:54:59.427Z,16.50
2019-06-10T20:57:58.932Z,16.40
2019-06-10T21:00:43.658Z,16.40
2019-06-10T21:03:32.340Z,16.40
2019-06-10T21:06:22.675Z,16.40
2019-06-10T21:09:13.373Z,16.30
2019-06-10T21:12:02.082Z,16.30
2019-06-10T21:14:50.229Z,16.30
2019-06-10T21:17:38.014Z,16.30
2019-06-10T21:20:26.604Z,16.30
2019-06-10T21:23:51.198Z,16.30
2019-06-10T21:26:38.535Z,16.30
2019-06-10T21:29:54.695Z,16.30
2019-06-10T21:32:45.294Z,16.30
2019-06-10T21:35:35.645Z,16.30
2019-06-10T21:38:38.884Z,16.30
2019-06-10T21:41:34.383Z,16.30
2019-06-10T21:47:39.852Z,16.20
2019-06-10T21:50:28.367Z,16.20
2019-06-10T21:53:53.290Z,16.20
2019-06-10T21:56:35.176Z,16.10
2019-06-10T21:59:46.998Z,16.10
2019-06-10T22:02:58.439Z,16.00
2019-06-10T22:05:44.555Z,16.00
2019-06-10T22:08:56.645Z,15.90
2019-06-10T22:12:03.170Z,15.90
2019-06-10T22:14:42.594Z,15.90
2019-06-10T22:18:01.991Z,15.80
2019-06-10T22:20:49.172Z,15.80
2019-06-10T22:23:44.584Z,15.70
2019-06-10T22:26:33.310Z,15.70
2019-06-10T22:29:23.053Z,15.70
2019-06-10T22:35:06.134Z,15.70
2019-06-10T22:37:55.437Z,15.70
2019-06-10T22:40:43.664Z,15.70
2019-06-10T22:43:55.745Z,15.70
2019-06-10T22:46:42.516Z,15.70
2019-06-10T22:49:56.381Z,15.70
2019-06-10T22:52:59.695Z,15.70
2019-06-10T22:56:31.769Z,15.70
2019-06-10T23:00:07.940Z,15.70
2019-06-10T23:04:07.072Z,15.70
2019-06-10T23:27:08.377Z,15.50
2019-06-10T23:29:57.577Z,15.50
2019-06-10T23:34:32.893Z,15.50
2019-06-10T23:35:47.557Z,15.50
2019-06-10T23:38:46.264Z,15.50
2019-06-10T23:44:55.602Z,15.40
2019-06-10T23:48:04.854Z,15.40
2019-06-10T23:50:55.677Z,15.40
2019-06-10T23:54:01.994Z,15.40
2019-06-10T23:56:36.107Z,15.50
2019-06-10T23:59:33.241Z,15.50
